Time;durP1;ratioP1;P1;durP2;ratioP2;P2;SDS_P1;SDS_P2;PMS_P1;PMS_P2;Temp;Humidity;BMP_temperature;BMP_pressure;BME280_temperature;BME280_humidity;BME280_pressure;Samples;Min_cycle;Max_cycle;Signal;HPM_P1;HPM_P2
2022/04/25 00:01:17;;;;;;;9.60;2.13;;;;;;;5.08;49.14;101057.66;5053549;28;20059;-80
2022/04/25 00:03:43;;;;;;;3.80;1.50;;;;;;;5.14;49.05;101062.78;5038204;28;20096;-80
2022/04/25 00:06:08;;;;;;;9.25;2.00;;;;;;;5.11;49.04;101061.09;5048064;28;20056;-77
2022/04/25 00:08:34;;;;;;;6.25;1.58;;;;;;;5.28;48.96;101071.22;5039117;28;20041;-80
2022/04/25 00:11:00;;;;;;;6.30;2.58;;;;;;;5.17;49.25;101066.19;5036501;28;20059;-78
2022/04/25 00:13:26;;;;;;;10.18;2.00;;;;;;;5.25;49.16;101069.50;5052995;28;20072;-75
2022/04/25 00:15:52;;;;;;;6.03;1.88;;;;;;;5.37;48.87;101077.97;5052608;28;20100;-79
2022/04/25 00:18:18;;;;;;;2.90;1.52;;;;;;;5.52;48.54;101077.75;5038696;28;20044;-78
2022/04/25 00:20:44;;;;;;;6.30;1.90;;;;;;;5.51;48.58;101086.41;5056238;28;20037;-77
2022/04/25 00:23:10;;;;;;;4.82;1.90;;;;;;;5.61;48.27;101087.13;5035903;28;20128;-77
2022/04/25 00:25:35;;;;;;;6.63;1.98;;;;;;;5.60;48.59;101088.00;5039211;28;20078;-78
2022/04/25 00:28:03;;;;;;;4.72;1.70;;;;;;;5.58;48.40;101080.25;5036624;28;20041;-78
2022/04/25 00:30:28;;;;;;;4.38;2.13;;;;;;;5.67;48.49;101087.03;5070507;28;20199;-78
2022/04/25 00:32:55;;;;;;;4.90;1.67;;;;;;;5.54;48.45;101081.16;5037487;28;20201;-78
2022/04/25 00:35:21;;;;;;;3.20;1.25;;;;;;;5.50;48.73;101071.72;5038184;28;20029;-77
2022/04/25 00:37:47;;;;;;;5.88;1.75;;;;;;;5.66;48.63;101081.00;5039000;28;20128;-78
2022/04/25 00:40:14;;;;;;;7.63;1.67;;;;;;;5.72;48.33;101085.22;5068251;28;20982;-81
2022/04/25 00:42:39;;;;;;;5.38;2.20;;;;;;;5.86;48.29;101079.81;5052718;28;20041;-81
2022/04/25 00:45:05;;;;;;;3.92;1.48;;;;;;;5.97;48.27;101083.06;5053672;28;20037;-81
2022/04/25 00:47:31;;;;;;;4.45;1.75;;;;;;;6.11;47.98;101082.81;5036266;28;20028;-78
2022/04/25 00:49:57;;;;;;;4.72;1.90;;;;;;;6.18;47.70;101084.41;5069292;28;21259;-76
2022/04/25 00:52:22;;;;;;;2.53;1.17;;;;;;;6.32;47.42;101081.59;5057638;28;20044;-77
2022/04/25 00:54:48;;;;;;;6.45;1.67;;;;;;;6.36;47.23;101083.25;5056187;28;20200;-79
2022/04/25 00:57:15;;;;;;;7.63;2.25;;;;;;;6.40;47.15;101084.91;5040981;28;20064;-79
2022/04/25 00:59:41;;;;;;;6.40;1.48;;;;;;;6.34;47.10;101077.22;5056770;28;20033;-76
2022/04/25 01:02:06;;;;;;;6.00;1.90;;;;;;;6.36;47.24;101072.88;5072635;28;20055;-77
2022/04/25 01:04:32;;;;;;;2.95;1.40;;;;;;;6.29;47.26;101079.91;5043515;28;20123;-77
2022/04/25 01:06:58;;;;;;;3.08;1.85;;;;;;;6.26;47.24;101073.88;5039468;28;20041;-81
2022/04/25 01:09:25;;;;;;;9.95;2.50;;;;;;;6.06;47.14;101069.94;5036585;28;20037;-78
2022/04/25 01:11:52;;;;;;;9.80;2.38;;;;;;;5.76;48.05;101075.66;5037991;28;20071;-79
2022/04/25 01:14:20;;;;;;;7.80;2.08;;;;;;;5.65;48.60;101078.41;5056197;28;20120;-78
2022/04/25 01:16:51;;;;;;;8.25;2.67;;;;;;;5.63;48.62;101082.75;5053837;28;20029;-77
2022/04/25 01:19:17;;;;;;;10.45;2.53;;;;;;;5.88;48.00;101080.63;5040219;28;20032;-76
2022/04/25 01:21:57;;;;;;;4.40;1.83;;;;;;;5.88;48.48;101085.81;5053792;28;20156;-77
2022/04/25 01:27:17;;;;;;;7.85;1.95;;;;;;;5.79;48.07;101092.03;5054828;28;20279;-77
2022/04/25 01:29:48;;;;;;;7.78;1.92;;;;;;;6.00;48.06;101090.81;5045196;28;20104;-79
2022/04/25 01:32:15;;;;;;;7.45;2.40;;;;;;;6.04;48.11;101097.66;5048377;28;20040;-79
2022/04/25 01:34:42;;;;;;;6.88;2.30;;;;;;;6.20;47.79;101108.63;5038384;28;20029;-76
2022/04/25 01:37:09;;;;;;;8.07;2.17;;;;;;;6.08;47.71;101099.31;5071074;28;20044;-76
2022/04/25 01:39:35;;;;;;;9.90;2.28;;;;;;;6.31;47.34;101100.66;5040549;28;20087;-79
2022/04/25 01:42:02;;;;;;;6.90;2.17;;;;;;;6.17;47.58;101107.81;5053879;28;20040;-79
2022/04/25 01:44:27;;;;;;;9.38;2.63;;;;;;;5.85;48.32;101096.25;5069260;28;20028;-78
2022/04/25 01:46:53;;;;;;;6.68;1.90;;;;;;;6.02;47.67;101106.34;5032047;28;20055;-79
2022/04/25 01:49:19;;;;;;;3.97;1.80;;;;;;;6.18;47.31;101105.19;5055821;28;20029;-78
2022/04/25 01:51:44;;;;;;;4.82;1.67;;;;;;;6.14;47.29;101107.88;5041229;28;20553;-78
2022/04/25 01:54:10;;;;;;;4.60;1.90;;;;;;;6.29;47.19;101107.63;5037306;28;20625;-79
2022/04/25 01:56:35;;;;;;;8.82;2.63;;;;;;;6.43;47.03;101105.63;5053957;28;20470;-77
2022/04/25 01:59:01;;;;;;;6.60;1.88;;;;;;;6.27;47.20;101104.16;5052019;28;20052;-78
2022/04/25 02:01:26;;;;;;;5.78;1.90;;;;;;;6.37;46.97;101108.31;5037793;28;20033;-80
2022/04/25 02:03:52;;;;;;;11.95;2.45;;;;;;;6.43;46.44;101110.81;5068370;28;20475;-77
2022/04/25 02:06:17;;;;;;;8.45;2.33;;;;;;;6.25;47.15;101100.75;5041587;28;20372;-76
2022/04/25 02:08:43;;;;;;;6.03;1.65;;;;;;;6.36;46.36;101109.22;5053250;28;20457;-78
2022/04/25 02:11:25;;;;;;;7.78;2.53;;;;;;;6.25;46.78;101106.78;5055443;28;20028;-81
2022/04/25 02:13:54;;;;;;;8.33;2.07;;;;;;;6.25;46.77;101105.94;5051523;28;20033;-78
2022/04/25 02:16:21;;;;;;;8.05;1.90;;;;;;;6.15;46.88;101105.25;5089704;28;20063;-79
2022/04/25 02:18:48;;;;;;;10.82;2.63;;;;;;;6.19;46.86;101106.88;5036661;28;20060;-80
2022/04/25 02:21:13;;;;;;;4.40;2.17;;;;;;;6.24;46.90;101099.03;5053921;28;20037;-77
2022/04/25 02:23:39;;;;;;;5.57;1.70;;;;;;;6.12;46.65;101104.44;5038275;28;20040;-78
2022/04/25 02:26:06;;;;;;;3.90;1.88;;;;;;;6.16;46.85;101098.31;5046417;28;20033;-82
2022/04/25 02:28:36;;;;;;;8.65;2.25;;;;;;;6.18;47.01;101104.34;5053618;28;20055;-80
2022/04/25 02:31:04;;;;;;;6.95;2.17;;;;;;;6.20;47.22;101103.41;5069835;28;20040;-77
2022/04/25 02:33:30;;;;;;;7.60;2.35;;;;;;;6.21;46.73;101104.28;5055627;28;20072;-79
2022/04/25 02:35:56;;;;;;;5.63;1.48;;;;;;;6.20;47.12;101105.16;5070266;28;20522;-80
2022/04/25 02:38:21;;;;;;;12.82;2.60;;;;;;;6.30;46.40;101098.94;5039022;28;20775;-80
2022/04/25 02:41:04;;;;;;;4.60;2.05;;;;;;;6.38;46.99;101107.44;5040737;28;20037;-78
2022/04/25 02:43:41;;;;;;;6.43;1.73;;;;;;;6.29;46.62;101102.44;5055292;28;20048;-77
2022/04/25 02:46:09;;;;;;;5.20;1.17;;;;;;;6.33;46.69;101114.47;5054719;28;20025;-80
2022/04/25 02:48:35;;;;;;;5.43;1.75;;;;;;;6.52;46.34;101104.59;5053344;28;20514;-79
2022/04/25 02:51:03;;;;;;;5.55;1.10;;;;;;;5.99;46.78;101109.81;5076559;28;20033;-77
2022/04/25 02:53:29;;;;;;;8.93;1.77;;;;;;;5.84;47.65;101110.09;5048404;28;20028;-79
2022/04/25 02:55:55;;;;;;;9.25;1.73;;;;;;;5.83;47.11;101106.63;5047189;28;20035;-81
2022/04/25 02:58:21;;;;;;;3.30;1.42;;;;;;;5.79;47.41;101106.72;5063839;28;20032;-75
2022/04/25 03:00:47;;;;;;;7.53;2.15;;;;;;;6.01;46.50;101107.22;5039948;28;20041;-77
2022/04/25 03:03:14;;;;;;;7.10;1.70;;;;;;;6.11;46.60;101102.75;5037539;28;20049;-78
2022/04/25 03:05:43;;;;;;;9.15;1.45;;;;;;;6.12;46.49;101105.28;5053940;28;20029;-79
2022/04/25 03:08:10;;;;;;;3.95;0.95;;;;;;;6.11;46.54;101107.94;5069624;28;20112;-78
2022/04/25 03:10:36;;;;;;;6.53;1.27;;;;;;;6.25;46.31;101104.19;5055860;28;20033;-77
2022/04/25 03:13:05;;;;;;;7.80;1.55;;;;;;;6.39;46.00;101100.50;5051895;28;20056;-78
2022/04/25 03:15:31;;;;;;;3.42;1.67;;;;;;;6.24;46.29;101101.63;5039891;28;20060;-78
2022/04/25 03:17:57;;;;;;;6.40;1.90;;;;;;;6.18;46.27;101105.19;5039718;28;20064;-79
2022/04/25 03:20:23;;;;;;;9.55;1.23;;;;;;;6.34;46.36;101107.53;5038389;28;20033;-79
2022/04/25 03:22:49;;;;;;;3.38;1.42;;;;;;;6.10;46.31;101101.88;5039207;28;20440;-75
2022/04/25 03:25:15;;;;;;;9.55;2.20;;;;;;;6.20;46.26;101093.03;5054191;28;20229;-79
2022/04/25 03:27:41;;;;;;;5.68;1.05;;;;;;;6.19;46.76;101103.44;5051872;28;20518;-77
2022/04/25 03:30:07;;;;;;;3.45;1.02;;;;;;;6.21;46.92;101104.28;5071453;28;20037;-79
2022/04/25 03:32:34;;;;;;;4.78;1.38;;;;;;;6.17;46.34;101102.59;5042821;28;20044;-79
2022/04/25 03:35:03;;;;;;;3.38;1.42;;;;;;;6.19;46.39;101111.22;5036657;28;20708;-75
2022/04/25 03:37:34;;;;;;;6.45;1.48;;;;;;;6.15;46.41;101109.56;5046348;28;20235;-80
2022/04/25 03:40:00;;;;;;;8.40;2.17;;;;;;;6.14;46.56;101105.28;5036335;28;20048;-77
2022/04/25 03:42:25;;;;;;;11.18;2.25;;;;;;;6.12;46.76;101113.06;5036426;28;20064;-78
2022/04/25 03:44:51;;;;;;;4.70;1.40;;;;;;;5.97;47.33;101109.03;5052049;28;20036;-78
2022/04/25 03:47:17;;;;;;;6.50;2.08;;;;;;;6.16;46.41;101111.28;5052001;28;20499;-77
2022/04/25 03:49:43;;;;;;;7.47;1.40;;;;;;;6.08;46.61;101114.00;5053688;28;20033;-78
2022/04/25 03:52:09;;;;;;;8.27;2.10;;;;;;;5.79;47.41;101109.31;5067250;28;20178;-80
2022/04/25 03:57:19;;;;;;;5.85;1.88;;;;;;;6.04;47.19;101118.41;5053241;28;20040;-78
2022/04/25 03:59:44;;;;;;;10.43;2.00;;;;;;;6.24;46.96;101120.66;5054011;28;20593;-79
2022/04/25 04:02:10;;;;;;;6.53;2.42;;;;;;;6.32;46.83;101117.94;5052935;28;20120;-77
2022/04/25 04:04:35;;;;;;;4.68;1.73;;;;;;;6.21;47.08;101115.50;5038014;28;20096;-76
2022/04/25 04:07:02;;;;;;;8.25;2.22;;;;;;;6.17;46.72;101120.78;5036049;28;20044;-80
2022/04/25 04:09:46;;;;;;;5.60;2.08;;;;;;;5.73;47.88;101127.59;5035665;28;20017;-78
2022/04/25 04:12:12;;;;;;;6.93;1.98;;;;;;;5.85;47.53;101123.03;5053622;28;20049;-79
2022/04/25 04:14:39;;;;;;;6.32;2.33;;;;;;;5.91;47.12;101129.03;5070076;28;20041;-80
2022/04/25 04:17:08;;;;;;;8.23;2.30;;;;;;;5.67;47.55;101124.19;5065168;28;20028;-77
2022/04/25 04:19:35;;;;;;;5.40;1.92;;;;;;;5.83;46.89;101123.94;5037026;28;20040;-77
2022/04/25 04:22:04;;;;;;;9.93;2.90;;;;;;;5.71;47.23;101129.34;5049714;28;20033;-79
2022/04/25 04:24:36;;;;;;;5.18;1.77;;;;;;;5.87;46.75;101131.66;5054360;28;20040;-80
2022/04/25 04:27:03;;;;;;;6.22;1.88;;;;;;;6.02;46.52;101130.56;5041639;28;20178;-77
2022/04/25 04:29:29;;;;;;;6.82;2.10;;;;;;;5.65;47.65;101132.88;5052467;28;20025;-78
2022/04/25 04:32:00;;;;;;;7.35;2.45;;;;;;;5.67;47.85;101139.75;5035729;28;20418;-78
2022/04/25 04:34:26;;;;;;;9.55;4.30;;;;;;;5.96;47.23;101138.44;5069725;28;20106;-77
2022/04/25 04:36:51;;;;;;;6.78;3.03;;;;;;;5.82;47.14;101137.81;5066739;28;20037;-78
2022/04/25 04:39:18;;;;;;;8.70;3.15;;;;;;;5.89;46.85;101134.22;5056947;28;20025;-77
2022/04/25 04:41:44;;;;;;;10.13;2.13;;;;;;;6.01;47.34;101139.19;5039670;28;20048;-77
2022/04/25 04:44:10;;;;;;;6.05;2.13;;;;;;;6.02;46.92;101145.28;5050687;28;20064;-80
2022/04/25 04:46:36;;;;;;;9.65;3.20;;;;;;;5.84;47.18;101147.28;5053767;28;20036;-77
2022/04/25 04:49:01;;;;;;;5.68;2.20;;;;;;;5.88;47.10;101145.47;5051828;28;20040;-77
2022/04/25 04:51:27;;;;;;;4.85;2.50;;;;;;;6.00;46.65;101153.06;5057133;28;20518;-81
2022/04/25 04:53:53;;;;;;;4.32;1.98;;;;;;;6.02;46.60;101160.84;5031412;28;20569;-81
2022/04/25 04:56:18;;;;;;;9.65;2.17;;;;;;;5.99;46.54;101156.53;5055863;28;20121;-75
2022/04/25 04:58:45;;;;;;;5.57;1.77;;;;;;;5.74;46.43;101161.25;5054712;28;20048;-80
2022/04/25 05:01:11;;;;;;;6.25;1.45;;;;;;;5.71;47.02;101160.47;5071964;28;20033;-75
2022/04/25 05:03:37;;;;;;;5.47;1.98;;;;;;;5.78;46.50;101167.25;5059283;28;20053;-76
2022/04/25 05:06:03;;;;;;;4.10;1.08;;;;;;;5.77;46.26;101174.19;5055979;28;20071;-76
2022/04/25 05:08:28;;;;;;;4.65;1.00;;;;;;;5.64;46.21;101165.75;5054451;28;20040;-77
2022/04/25 05:10:54;;;;;;;2.60;0.80;;;;;;;5.91;45.57;101168.78;5053841;28;20033;-78
2022/04/25 05:13:20;;;;;;;5.88;1.08;;;;;;;5.92;45.86;101172.25;5053522;28;20048;-76
2022/04/25 05:15:47;;;;;;;4.18;1.17;;;;;;;5.77;45.67;101171.59;5054190;28;20036;-79
2022/04/25 05:18:13;;;;;;;3.10;1.00;;;;;;;5.88;45.48;101177.47;5056939;28;20218;-78
2022/04/25 05:20:41;;;;;;;5.05;1.10;;;;;;;5.89;45.26;101167.97;5055707;28;20037;-79
2022/04/25 05:23:10;;;;;;;2.15;0.57;;;;;;;5.83;45.39;101170.63;5054951;28;20141;-78
2022/04/25 05:25:38;;;;;;;2.83;1.55;;;;;;;5.91;45.22;101173.97;5056266;28;20138;-77
2022/04/25 05:28:04;;;;;;;5.90;1.15;;;;;;;5.95;45.10;101180.84;5071314;28;20068;-75
2022/04/25 05:30:30;;;;;;;7.03;1.80;;;;;;;5.86;44.94;101181.00;5055848;28;20037;-78
2022/04/25 05:32:57;;;;;;;4.82;1.00;;;;;;;6.08;45.10;101187.53;5052894;28;20419;-78
2022/04/25 05:35:25;;;;;;;4.53;0.70;;;;;;;6.45;44.26;101194.72;5057278;28;20035;-79
2022/04/25 05:37:51;;;;;;;2.28;0.60;;;;;;;6.60;44.10;101191.00;5074538;28;20608;-78
2022/04/25 05:40:17;;;;;;;5.15;0.98;;;;;;;7.08;42.33;101203.06;5053169;28;20028;-76
2022/04/25 05:42:45;;;;;;;1.95;0.70;;;;;;;6.81;42.88;101202.72;5059016;28;20104;-79
2022/04/25 05:45:13;;;;;;;5.88;1.50;;;;;;;6.40;43.63;101209.53;5057279;28;20037;-76
2022/04/25 05:47:39;;;;;;;2.38;0.90;;;;;;;6.66;43.68;101205.59;5040868;28;20045;-80
2022/04/25 05:52:52;;;;;;;5.82;1.23;;;;;;;6.69;43.91;101202.97;5074859;28;20040;-75
2022/04/25 05:55:18;;;;;;;3.83;1.08;;;;;;;6.60;44.04;101206.59;5077392;28;20072;-77
2022/04/25 05:57:43;;;;;;;2.40;1.00;;;;;;;6.42;44.43;101202.59;5043907;28;20045;-77
2022/04/25 06:00:11;;;;;;;9.13;1.65;;;;;;;6.70;44.03;101207.28;5076390;28;20857;-77
2022/04/25 06:02:40;;;;;;;3.00;1.60;;;;;;;6.39;44.75;101215.59;5074043;28;20037;-79
2022/04/25 06:05:07;;;;;;;4.05;1.27;;;;;;;6.46;44.68;101216.34;5060286;28;20036;-79
2022/04/25 06:07:33;;;;;;;3.80;0.90;;;;;;;6.65;44.14;101209.09;5042243;28;20227;-78
2022/04/25 06:10:00;;;;;;;5.00;0.82;;;;;;;6.34;44.62;101220.03;5040381;28;20036;-76
2022/04/25 06:12:29;;;;;;;5.10;1.50;;;;;;;6.38;44.45;101220.84;5057240;28;20096;-78
2022/04/25 06:14:56;;;;;;;5.50;1.10;;;;;;;6.48;44.40;101222.38;5058402;28;20044;-79
2022/04/25 06:17:21;;;;;;;4.70;1.08;;;;;;;6.63;44.36;101224.72;5061215;28;20040;-75
2022/04/25 06:19:47;;;;;;;3.65;1.15;;;;;;;6.97;44.02;101223.22;5042592;28;20052;-76
2022/04/25 06:22:16;;;;;;;2.88;1.17;;;;;;;6.90;43.53;101225.94;5041625;28;20100;-78
2022/04/25 06:24:42;;;;;;;6.78;0.98;;;;;;;7.13;43.08;101232.44;5056716;28;20463;-79
2022/04/25 06:27:09;;;;;;;4.65;1.35;;;;;;;6.77;43.12;101231.41;5056935;28;20132;-79
2022/04/25 06:29:35;;;;;;;4.28;0.82;;;;;;;6.76;43.26;101233.16;5054633;28;20140;-79
2022/04/25 06:32:05;;;;;;;4.13;1.08;;;;;;;6.89;43.38;101237.22;5039385;28;20051;-79
2022/04/25 06:34:32;;;;;;;2.72;0.73;;;;;;;7.28;42.34;101234.72;5038277;28;20063;-77
2022/04/25 06:36:58;;;;;;;5.60;1.27;;;;;;;7.16;41.35;101231.53;5053538;28;20136;-80
2022/04/25 06:39:23;;;;;;;5.22;1.13;;;;;;;7.58;41.47;101245.44;5054674;28;20116;-78
2022/04/25 06:41:49;;;;;;;4.15;1.20;;;;;;;8.43;39.89;101246.06;5056918;28;20083;-79
2022/04/25 06:44:15;;;;;;;5.72;1.20;;;;;;;9.97;36.83;101240.88;5057664;28;20033;-75
2022/04/25 06:46:41;;;;;;;4.70;0.70;;;;;;;10.75;34.16;101241.78;5035993;28;20030;-77
2022/04/25 06:49:23;;;;;;;3.63;0.70;;;;;;;13.22;31.52;101250.34;5045465;28;20037;-79
2022/04/25 06:51:53;;;;;;;2.28;0.73;;;;;;;12.23;30.95;101242.38;5049805;28;20040;-77
2022/04/25 06:54:20;;;;;;;6.13;0.98;;;;;;;13.71;29.11;101239.38;5040773;28;20190;-77
2022/04/25 06:56:46;;;;;;;6.82;0.80;;;;;;;14.24;27.96;101235.94;5053058;28;20075;-80
2022/04/25 06:59:12;;;;;;;6.40;1.50;;;;;;;14.28;28.39;101248.00;5036605;28;20048;-78
2022/04/25 07:01:39;;;;;;;1.88;1.15;;;;;;;14.45;28.48;101248.94;5037820;28;20040;-77
2022/04/25 07:04:06;;;;;;;3.03;0.82;;;;;;;16.06;26.42;101250.88;5050274;28;20033;-80
2022/04/25 07:06:32;;;;;;;1.60;0.85;;;;;;;15.51;26.94;101246.91;5051079;28;20163;-80
2022/04/25 07:08:57;;;;;;;1.77;0.63;;;;;;;14.85;27.86;101250.38;5035976;28;20866;-79
2022/04/25 07:11:23;;;;;;;3.47;0.70;;;;;;;14.35;28.99;101259.91;5036821;28;20029;-79
2022/04/25 07:13:49;;;;;;;1.42;0.68;;;;;;;14.73;27.22;101256.28;5027077;28;20040;-75
2022/04/25 07:16:15;;;;;;;1.85;0.65;;;;;;;15.72;25.92;101254.53;5036812;28;20041;-79
2022/04/25 07:18:41;;;;;;;2.17;0.85;;;;;;;15.75;26.33;101265.78;5034284;28;20503;-76
2022/04/25 07:29:24;;;;;;;2.65;0.95;;;;;;;15.68;26.28;101259.13;5070548;28;20724;-77
2022/04/25 07:31:53;;;;;;;3.65;1.13;;;;;;;15.68;26.07;101266.19;5053108;28;20036;-79
2022/04/25 07:34:20;;;;;;;2.75;0.82;;;;;;;16.22;25.55;101266.69;5054247;28;20029;-76
2022/04/25 07:36:51;;;;;;;3.85;0.65;;;;;;;15.96;25.85;101273.41;5068695;28;20036;-76
2022/04/25 07:39:23;;;;;;;2.53;0.98;;;;;;;16.11;25.11;101272.56;5069237;28;20112;-80
2022/04/25 07:41:50;;;;;;;6.13;0.93;;;;;;;17.22;24.19;101269.50;5054942;28;20036;-79
2022/04/25 07:44:16;;;;;;;6.20;1.10;;;;;;;16.23;25.28;101270.16;5072247;28;20013;-79
2022/04/25 07:46:42;;;;;;;3.05;0.95;;;;;;;15.24;27.41;101270.31;5052291;28;20033;-80
2022/04/25 07:49:09;;;;;;;2.47;0.88;;;;;;;15.37;26.28;101273.13;5051831;28;20123;-77
2022/04/25 07:51:42;;;;;;;1.90;0.95;;;;;;;15.28;26.79;101265.72;5037385;28;20028;-79
2022/04/25 07:54:09;;;;;;;4.85;1.05;;;;;;;16.45;24.79;101269.75;5068909;28;20574;-82
2022/04/25 07:56:36;;;;;;;1.45;0.47;;;;;;;17.15;24.67;101281.38;5053909;28;20074;-76
2022/04/25 07:59:05;;;;;;;1.60;0.90;;;;;;;17.59;23.56;101269.84;5036053;28;20108;-79
2022/04/25 08:01:30;;;;;;;2.15;1.00;;;;;;;18.43;22.88;101275.91;5039464;28;20028;-79
2022/04/25 08:03:58;;;;;;;3.47;1.08;;;;;;;18.40;23.79;101276.13;5034328;28;20055;-78
2022/04/25 08:06:24;;;;;;;4.63;0.88;;;;;;;17.09;24.23;101275.63;5043489;28;20029;-77
2022/04/25 08:08:51;;;;;;;3.92;1.17;;;;;;;16.89;24.89;101284.75;5055722;28;20097;-75
2022/04/25 08:11:16;;;;;;;5.25;1.15;;;;;;;17.51;23.55;101285.34;5055863;28;20033;-78
2022/04/25 08:19:15;;;;;;;4.20;1.05;;;;;;;18.97;21.92;101282.88;5067109;28;20151;-80
2022/04/25 08:21:42;;;;;;;2.40;0.90;;;;;;;20.25;21.65;101293.19;5051178;28;20119;-79
2022/04/25 08:24:08;;;;;;;5.07;1.38;;;;;;;19.51;21.45;101285.25;5071388;28;20040;-78
2022/04/25 08:26:35;;;;;;;1.92;0.90;;;;;;;19.05;22.00;101285.81;5053155;28;20029;-77
2022/04/25 08:29:01;;;;;;;5.68;1.35;;;;;;;19.14;22.24;101284.34;5045578;28;20181;-79
2022/04/25 08:31:27;;;;;;;4.35;0.90;;;;;;;17.88;23.30;101287.47;5065337;28;20052;-80
2022/04/25 08:33:55;;;;;;;6.30;1.48;;;;;;;18.04;22.75;101285.50;5053425;28;20554;-77
2022/04/25 08:36:21;;;;;;;2.40;1.52;;;;;;;17.43;24.70;101288.44;5047638;28;20017;-80
2022/04/25 08:38:47;;;;;;;2.45;1.20;;;;;;;17.65;24.67;101287.13;5047503;28;20048;-78
2022/04/25 08:41:16;;;;;;;5.65;1.25;;;;;;;18.55;22.79;101284.84;5032640;28;20113;-79
2022/04/25 08:43:42;;;;;;;3.05;1.17;;;;;;;18.56;23.10;101284.72;5064711;28;20033;-79
2022/04/25 08:46:09;;;;;;;4.10;1.52;;;;;;;18.63;22.31;101293.09;5048335;28;20724;-80
2022/04/25 08:48:37;;;;;;;14.65;2.15;;;;;;;18.77;22.57;101287.72;5062970;28;20049;-78
2022/04/25 08:51:04;;;;;;;2.08;1.20;;;;;;;19.28;21.82;101290.38;5065271;28;20032;-79
2022/04/25 08:53:32;;;;;;;3.85;1.58;;;;;;;18.54;22.99;101299.00;5062490;28;20041;-79
2022/04/25 08:56:00;;;;;;;5.40;1.10;;;;;;;18.25;23.27;101293.84;5029743;28;20033;-78
2022/04/25 08:58:26;;;;;;;4.43;1.00;;;;;;;17.16;24.66;101290.19;5040053;28;20049;-78
2022/04/25 09:00:53;;;;;;;8.38;1.60;;;;;;;16.82;25.37;101303.63;5049238;28;20048;-77
2022/04/25 09:03:18;;;;;;;3.35;2.25;;;;;;;17.11;25.28;101306.28;5030290;28;20052;-78
2022/04/25 09:05:44;;;;;;;2.58;1.08;;;;;;;17.44;24.99;101298.06;5045594;28;20036;-80
2022/04/25 09:08:10;;;;;;;3.67;0.75;;;;;;;17.34;25.77;101307.53;5046027;28;20041;-77
2022/04/25 09:10:38;;;;;;;7.32;1.60;;;;;;;16.93;25.06;101318.78;5048621;28;20028;-77
2022/04/25 09:13:06;;;;;;;2.00;1.05;;;;;;;15.29;27.77;101320.09;5045580;28;20136;-78
2022/04/25 09:15:33;;;;;;;5.55;2.40;;;;;;;14.15;29.85;101317.88;5049238;28;20037;-78
2022/04/25 09:17:59;;;;;;;2.83;1.35;;;;;;;13.38;30.32;101324.00;5036187;28;20080;-77
2022/04/25 09:20:26;;;;;;;4.00;1.42;;;;;;;13.58;30.18;101331.03;5051589;28;20072;-78
2022/04/25 09:22:55;;;;;;;6.15;1.60;;;;;;;12.88;32.39;101324.47;5032271;28;20802;-79
2022/04/25 09:25:21;;;;;;;5.90;2.03;;;;;;;13.31;31.41;101322.59;5049856;28;20061;-77
2022/04/25 09:28:07;;;;;;;5.05;1.55;;;;;;;13.78;30.78;101319.59;5034605;28;20044;-78
2022/04/25 09:30:32;;;;;;;5.78;1.20;;;;;;;13.97;30.37;101324.00;5043137;28;20033;-79
2022/04/25 09:32:58;;;;;;;3.60;0.98;;;;;;;13.96;30.30;101324.91;5034115;28;20650;-78
2022/04/25 09:35:35;;;;;;;3.63;1.13;;;;;;;14.50;29.76;101331.09;5036729;28;20037;-79
2022/04/25 09:38:03;;;;;;;3.60;1.20;;;;;;;14.97;29.08;101328.72;5066530;28;20079;-79
2022/04/25 09:40:31;;;;;;;7.45;1.55;;;;;;;14.04;30.86;101330.69;5050817;28;20503;-79
2022/04/25 09:43:10;;;;;;;3.90;1.58;;;;;;;14.38;30.83;101326.41;5047777;28;20808;-80
2022/04/25 09:45:42;;;;;;;4.75;1.50;;;;;;;14.82;29.91;101337.41;5052006;28;20038;-78
2022/04/25 09:48:12;;;;;;;9.77;1.88;;;;;;;14.55;29.70;101334.38;5042188;28;20505;-78
2022/04/25 09:50:38;;;;;;;3.00;1.13;;;;;;;14.63;28.94;101334.81;5048844;28;20503;-79
2022/04/25 09:53:06;;;;;;;5.95;1.13;;;;;;;14.46;30.70;101334.81;5064047;28;20071;-78
2022/04/25 09:55:36;;;;;;;2.70;1.38;;;;;;;14.79;29.73;101332.31;5032972;28;20504;-79
2022/04/25 09:58:17;;;;;;;3.50;1.50;;;;;;;14.87;29.34;101334.53;5045218;28;20049;-79
2022/04/25 10:00:43;;;;;;;3.42;1.50;;;;;;;14.66;28.89;101342.59;5049578;28;20453;-79
2022/04/25 10:03:09;;;;;;;4.60;1.60;;;;;;;14.64;28.80;101333.06;5047885;28;20107;-77
2022/04/25 10:05:40;;;;;;;4.72;1.38;;;;;;;14.77;28.04;101334.16;5049540;28;20041;-78
2022/04/25 10:08:08;;;;;;;5.00;1.42;;;;;;;14.38;29.23;101329.91;5042175;28;20053;-79
2022/04/25 10:10:34;;;;;;;4.03;1.33;;;;;;;13.98;29.88;101339.69;5050764;28;20501;-80
2022/04/25 10:13:01;;;;;;;4.28;1.20;;;;;;;14.13;29.83;101349.47;5064362;28;20041;-78
2022/04/25 10:15:26;;;;;;;6.10;1.80;;;;;;;14.48;29.44;101346.97;5051208;28;20052;-79
2022/04/25 10:17:55;;;;;;;2.58;1.80;;;;;;;14.28;29.76;101358.44;5031999;28;20083;-77
2022/04/25 10:20:21;;;;;;;2.78;1.23;;;;;;;13.84;30.14;101348.22;5034092;28;20028;-79
2022/04/25 10:22:47;;;;;;;2.30;1.10;;;;;;;13.99;30.52;101349.28;5031459;28;20049;-78
2022/04/25 10:25:13;;;;;;;3.75;1.20;;;;;;;13.97;30.09;101358.19;5049939;28;20613;-78
2022/04/25 10:27:43;;;;;;;2.17;1.30;;;;;;;14.75;28.31;101352.63;5062043;28;20045;-78
2022/04/25 10:30:16;;;;;;;2.63;0.75;;;;;;;14.92;28.99;101350.94;5081972;28;20033;-78
2022/04/25 10:32:42;;;;;;;2.17;1.02;;;;;;;14.98;29.17;101346.19;5047266;28;20124;-77
2022/04/25 10:35:29;;;;;;;3.17;1.02;;;;;;;14.82;29.10;101353.19;5063905;28;20037;-79
2022/04/25 10:37:55;;;;;;;3.22;1.60;;;;;;;14.42;29.92;101364.81;5061488;28;20056;-80
2022/04/25 10:46:13;;;;;;;3.40;1.58;;;;;;;14.65;31.20;101367.16;5049797;28;20093;-79
2022/04/25 10:49:09;;;;;;;3.40;1.52;;;;;;;14.74;30.33;101377.22;5047274;28;20053;-80
2022/04/25 10:51:38;;;;;;;4.03;1.88;;;;;;;14.31;29.91;101368.78;5046970;28;20086;-79
2022/04/25 10:54:05;;;;;;;4.13;1.80;;;;;;;14.29;30.30;101372.41;5043920;28;20037;-78
2022/04/25 10:56:32;;;;;;;3.08;1.80;;;;;;;14.08;30.56;101376.94;5032166;28;20044;-81
2022/04/25 10:59:20;;;;;;;6.45;2.10;;;;;;;14.63;28.57;101384.81;5046377;28;20041;-82
2022/04/25 11:01:46;;;;;;;2.75;1.50;;;;;;;15.01;28.77;101371.50;5060170;28;20033;-80
2022/04/25 11:04:17;;;;;;;4.20;1.80;;;;;;;14.98;29.80;101374.31;5028698;28;20114;-80
2022/04/25 11:06:43;;;;;;;6.40;1.85;;;;;;;14.49;29.33;101371.47;5045229;28;20033;-78
2022/04/25 11:09:09;;;;;;;5.10;1.65;;;;;;;14.22;30.52;101373.63;5061170;28;20121;-77
2022/04/25 11:11:51;;;;;;;3.40;1.67;;;;;;;13.88;30.65;101386.56;5030268;28;20091;-77
2022/04/25 11:14:18;;;;;;;4.18;2.00;;;;;;;13.99;31.12;101387.88;5060204;28;20410;-77
2022/04/25 11:17:07;;;;;;;3.75;1.63;;;;;;;14.64;30.08;101386.53;5032203;28;20048;-79
2022/04/25 11:19:48;;;;;;;3.10;1.60;;;;;;;14.27;30.90;101382.16;5044846;28;20071;-77
2022/04/25 11:22:35;;;;;;;3.47;1.85;;;;;;;13.63;32.15;101385.97;5061629;28;20422;-78
2022/04/25 11:25:26;;;;;;;5.88;1.90;;;;;;;14.75;31.31;101384.22;5060697;28;20040;-80
2022/04/25 11:28:07;;;;;;;2.45;1.70;;;;;;;14.03;31.10;101389.41;5024287;28;20167;-78
2022/04/25 11:30:33;;;;;;;2.65;1.73;;;;;;;14.33;30.20;101389.75;5022916;28;20434;-84
2022/04/25 11:33:12;;;;;;;4.68;2.00;;;;;;;14.69;30.66;101392.41;5030362;28;20063;-76
2022/04/25 11:35:41;;;;;;;2.30;1.80;;;;;;;13.99;30.45;101388.72;5021305;28;20074;-79
2022/04/25 11:38:07;;;;;;;6.38;1.95;;;;;;;14.67;29.74;101391.63;5059170;28;20053;-78
2022/04/25 11:40:34;;;;;;;5.40;2.75;;;;;;;14.71;31.75;101397.59;5048912;28;20039;-78
2022/04/25 11:43:00;;;;;;;5.18;2.67;;;;;;;14.49;31.23;101396.00;5022426;28;20049;-78
2022/04/25 11:45:29;;;;;;;5.78;2.08;;;;;;;13.98;32.08;101401.91;5028911;28;20032;-80
2022/04/25 11:47:55;;;;;;;5.05;2.30;;;;;;;13.93;32.99;101410.00;5027092;28;20096;-77
2022/04/25 11:50:21;;;;;;;7.50;2.88;;;;;;;13.24;33.12;101402.53;5030257;28;20701;-77
2022/04/25 11:52:48;;;;;;;3.33;2.28;;;;;;;12.92;33.63;101402.13;5044991;28;20045;-77
2022/04/25 11:55:17;;;;;;;5.82;2.53;;;;;;;13.86;32.18;101404.19;5046888;28;20056;-77
2022/04/25 11:57:45;;;;;;;4.85;2.10;;;;;;;14.09;30.70;101411.00;5032005;28;20568;-78
2022/04/25 12:00:16;;;;;;;3.92;2.42;;;;;;;14.29;31.58;101404.81;5045068;28;20102;-78